sensor_id;sensor_type;location;lat;lon;timestamp;pressure;altitude;pressure_sealevel;temperature;humidity
76022;BME280;64718;52.124;6.226;2023-12-28T00:02:14;100791.09;;;8.54;100.00
76022;BME280;64718;52.124;6.226;2023-12-28T00:04:41;100797.84;;;8.58;100.00
76022;BME280;64718;52.124;6.226;2023-12-28T00:07:07;100788.59;;;8.51;100.00
76022;BME280;64718;52.124;6.226;2023-12-28T00:09:34;100797.97;;;8.55;100.00
76022;BME280;64718;52.124;6.226;2023-12-28T00:12:00;100786.47;;;8.62;100.00
76022;BME280;64718;52.124;6.226;2023-12-28T00:14:27;100790.66;;;8.66;100.00
76022;BME280;64718;52.124;6.226;2023-12-28T00:16:53;100800.03;;;8.70;100.00
76022;BME280;64718;52.124;6.226;2023-12-28T00:19:21;100802.59;;;8.72;100.00
76022;BME280;64718;52.124;6.226;2023-12-28T00:21:48;100790.28;;;8.77;100.00
76022;BME280;64718;52.124;6.226;2023-12-28T00:24:15;100808.66;;;8.71;100.00
76022;BME280;64718;52.124;6.226;2023-12-28T00:26:41;100820.34;;;8.82;100.00
76022;BME280;64718;52.124;6.226;2023-12-28T00:29:08;100831.06;;;8.73;100.00
76022;BME280;64718;52.124;6.226;2023-12-28T00:31:34;100827.56;;;8.74;100.00
76022;BME280;64718;52.124;6.226;2023-12-28T00:34:01;100827.38;;;8.79;100.00
76022;BME280;64718;52.124;6.226;2023-12-28T00:36:29;100827.38;;;8.79;100.00
76022;BME280;64718;52.124;6.226;2023-12-28T00:38:55;100830.84;;;8.79;100.00
76022;BME280;64718;52.124;6.226;2023-12-28T00:41:22;100833.25;;;8.84;100.00
76022;BME280;64718;52.124;6.226;2023-12-28T00:43:48;100841.72;;;8.89;100.00
76022;BME280;64718;52.124;6.226;2023-12-28T00:46:15;100844.53;;;8.83;100.00
76022;BME280;64718;52.124;6.226;2023-12-28T00:48:41;100836.75;;;8.83;100.00
76022;BME280;64718;52.124;6.226;2023-12-28T00:51:11;100849.84;;;8.80;100.00
76022;BME280;64718;52.124;6.226;2023-12-28T00:53:39;100848.09;;;8.80;100.00
76022;BME280;64718;52.124;6.226;2023-12-28T00:56:05;100853.84;;;8.88;100.00
76022;BME280;64718;52.124;6.226;2023-12-28T00:58:32;100868.34;;;8.94;100.00
76022;BME280;64718;52.124;6.226;2023-12-28T01:00:58;100864.84;;;8.95;100.00
76022;BME280;64718;52.124;6.226;2023-12-28T01:03:25;100866.53;;;8.96;100.00
76022;BME280;64718;52.124;6.226;2023-12-28T01:05:51;100872.56;;;8.97;100.00
76022;BME280;64718;52.124;6.226;2023-12-28T01:08:18;100875.84;;;9.02;100.00
76022;BME280;64718;52.124;6.226;2023-12-28T01:10:46;100864.69;;;9.00;100.00
76022;BME280;64718;52.124;6.226;2023-12-28T01:13:13;100864.97;;;8.92;100.00
76022;BME280;64718;52.124;6.226;2023-12-28T01:15:39;100863.16;;;8.94;100.00
76022;BME280;64718;52.124;6.226;2023-12-28T01:18:06;100880.78;;;8.84;100.00
76022;BME280;64718;52.124;6.226;2023-12-28T01:20:32;100878.34;;;8.80;100.00
76022;BME280;64718;52.124;6.226;2023-12-28T01:23:00;100882.75;;;8.78;100.00
76022;BME280;64718;52.124;6.226;2023-12-28T01:25:26;100883.66;;;8.77;100.00
76022;BME280;64718;52.124;6.226;2023-12-28T01:27:54;100887.88;;;8.79;100.00
76022;BME280;64718;52.124;6.226;2023-12-28T01:30:21;100878.69;;;8.71;100.00
76022;BME280;64718;52.124;6.226;2023-12-28T01:32:47;100891.44;;;8.77;100.00
76022;BME280;64718;52.124;6.226;2023-12-28T01:35:14;100882.53;;;8.84;100.00
76022;BME280;64718;52.124;6.226;2023-12-28T01:37:40;100883.91;;;8.94;100.00
76022;BME280;64718;52.124;6.226;2023-12-28T01:40:08;100893.38;;;8.95;100.00
76022;BME280;64718;52.124;6.226;2023-12-28T01:42:35;100898.72;;;8.91;100.00
76022;BME280;64718;52.124;6.226;2023-12-28T01:45:04;100898.09;;;8.84;100.00
76022;BME280;64718;52.124;6.226;2023-12-28T01:47:30;100898.78;;;8.89;100.00
76022;BME280;64718;52.124;6.226;2023-12-28T01:49:58;100898.09;;;8.84;100.00
76022;BME280;64718;52.124;6.226;2023-12-28T01:52:26;100898.16;;;8.82;100.00
76022;BME280;64718;52.124;6.226;2023-12-28T01:54:53;100908.63;;;8.79;100.00
76022;BME280;64718;52.124;6.226;2023-12-28T01:57:21;100913.13;;;8.74;100.00
76022;BME280;64718;52.124;6.226;2023-12-28T01:59:48;100908.56;;;8.81;100.00
76022;BME280;64718;52.124;6.226;2023-12-28T02:02:16;100917.31;;;8.78;100.00
76022;BME280;64718;52.124;6.226;2023-12-28T02:04:43;100919.84;;;8.80;100.00
76022;BME280;64718;52.124;6.226;2023-12-28T02:07:10;100911.81;;;8.87;100.00
76022;BME280;64718;52.124;6.226;2023-12-28T02:09:39;100906.47;;;8.92;100.00
76022;BME280;64718;52.124;6.226;2023-12-28T02:12:12;100904.94;;;8.86;100.00
76022;BME280;64718;52.124;6.226;2023-12-28T02:14:42;100901.38;;;8.89;100.00
76022;BME280;64718;52.124;6.226;2023-12-28T02:17:13;100899.47;;;8.94;100.00
76022;BME280;64718;52.124;6.226;2023-12-28T02:19:45;100899.03;;;9.06;100.00
76022;BME280;64718;52.124;6.226;2023-12-28T02:22:14;100902.47;;;9.07;100.00
76022;BME280;64718;52.124;6.226;2023-12-28T02:24:58;100892.25;;;9.02;100.00
76022;BME280;64718;52.124;6.226;2023-12-28T02:27:24;100900.38;;;8.93;100.00
76022;BME280;64718;52.124;6.226;2023-12-28T02:29:51;100890.16;;;8.88;100.00
76022;BME280;64718;52.124;6.226;2023-12-28T02:32:22;100887.66;;;8.85;100.00
76022;BME280;64718;52.124;6.226;2023-12-28T02:34:55;100884.28;;;8.83;100.00
76022;BME280;64718;52.124;6.226;2023-12-28T02:37:25;100878.31;;;8.81;100.00
76022;BME280;64718;52.124;6.226;2023-12-28T02:39:53;100893.00;;;8.81;100.00
76022;BME280;64718;52.124;6.226;2023-12-28T02:42:22;100890.00;;;8.68;100.00
76022;BME280;64718;52.124;6.226;2023-12-28T02:44:50;100886.25;;;8.77;100.00
76022;BME280;64718;52.124;6.226;2023-12-28T02:47:16;100886.94;;;8.82;100.00
76022;BME280;64718;52.124;6.226;2023-12-28T02:49:43;100895.66;;;8.79;100.00
76022;BME280;64718;52.124;6.226;2023-12-28T02:52:09;100886.13;;;8.80;100.00
76022;BME280;64718;52.124;6.226;2023-12-28T02:54:36;100892.44;;;8.73;100.00
76022;BME280;64718;52.124;6.226;2023-12-28T02:57:03;100882.91;;;8.73;100.00
76022;BME280;64718;52.124;6.226;2023-12-28T02:59:31;100871.78;;;8.70;100.00
76022;BME280;64718;52.124;6.226;2023-12-28T03:01:57;100881.41;;;8.66;100.00
76022;BME280;64718;52.124;6.226;2023-12-28T03:04:24;100875.06;;;8.75;100.00
76022;BME280;64718;52.124;6.226;2023-12-28T03:06:51;100871.53;;;8.77;100.00
76022;BME280;64718;52.124;6.226;2023-12-28T03:09:17;100879.38;;;8.76;100.00
76022;BME280;64718;52.124;6.226;2023-12-28T03:11:44;100873.22;;;8.78;100.00
76022;BME280;64718;52.124;6.226;2023-12-28T03:14:10;100861.59;;;8.64;100.00
76022;BME280;64718;52.124;6.226;2023-12-28T03:16:38;100863.16;;;8.69;100.00
76022;BME280;64718;52.124;6.226;2023-12-28T03:19:05;100859.56;;;8.73;100.00
76022;BME280;64718;52.124;6.226;2023-12-28T03:21:32;100855.75;;;8.83;100.00
76022;BME280;64718;52.124;6.226;2023-12-28T03:23:58;100855.69;;;8.85;100.00
76022;BME280;64718;52.124;6.226;2023-12-28T03:26:25;100851.19;;;8.90;100.00
76022;BME280;64718;52.124;6.226;2023-12-28T03:28:51;100857.19;;;8.92;100.00
76022;BME280;64718;52.124;6.226;2023-12-28T03:31:18;100858.69;;;8.98;100.00
76022;BME280;64718;52.124;6.226;2023-12-28T03:33:45;100852.22;;;8.86;100.00
76022;BME280;64718;52.124;6.226;2023-12-28T03:36:17;100850.34;;;8.90;100.00
76022;BME280;64718;52.124;6.226;2023-12-28T03:38:44;100865.81;;;8.93;100.00
76022;BME280;64718;52.124;6.226;2023-12-28T03:41:16;100864.78;;;8.97;100.00
76022;BME280;64718;52.124;6.226;2023-12-28T03:43:42;100858.06;;;8.91;100.00
76022;BME280;64718;52.124;6.226;2023-12-28T03:46:09;100856.16;;;8.96;100.00
76022;BME280;64718;52.124;6.226;2023-12-28T03:48:38;100863.88;;;8.98;100.00
76022;BME280;64718;52.124;6.226;2023-12-28T03:51:06;100869.88;;;9.00;100.00
76022;BME280;64718;52.124;6.226;2023-12-28T03:53:32;100869.47;;;9.10;100.00
76022;BME280;64718;52.124;6.226;2023-12-28T03:55:59;100858.66;;;9.23;100.00
76022;BME280;64718;52.124;6.226;2023-12-28T03:58:26;100862.88;;;9.27;100.00
76022;BME280;64718;52.124;6.226;2023-12-28T04:00:52;100870.72;;;9.24;100.00
76022;BME280;64718;52.124;6.226;2023-12-28T04:03:19;100874.16;;;9.26;100.00
76022;BME280;64718;52.124;6.226;2023-12-28T04:05:46;100861.72;;;9.34;100.00
76022;BME280;64718;52.124;6.226;2023-12-28T04:08:14;100872.28;;;9.29;100.00
76022;BME280;64718;52.124;6.226;2023-12-28T04:10:41;100873.44;;;9.20;100.00
76022;BME280;64718;52.124;6.226;2023-12-28T04:13:07;100870.06;;;9.18;100.00
76022;BME280;64718;52.124;6.226;2023-12-28T04:15:34;100873.59;;;9.16;100.00
76022;BME280;64718;52.124;6.226;2023-12-28T04:18:01;100872.28;;;9.29;100.00
76022;BME280;64718;52.124;6.226;2023-12-28T04:20:27;100870.81;;;9.45;100.00
76022;BME280;64718;52.124;6.226;2023-12-28T04:22:54;100877.91;;;9.40;100.00
76022;BME280;64718;52.124;6.226;2023-12-28T04:25:22;100873.13;;;9.30;100.00
76022;BME280;64718;52.124;6.226;2023-12-28T04:27:48;100862.25;;;9.18;100.00
76022;BME280;64718;52.124;6.226;2023-12-28T04:30:15;100858.03;;;9.16;100.00
76022;BME280;64718;52.124;6.226;2023-12-28T04:32:42;100863.97;;;9.19;100.00
76022;BME280;64718;52.124;6.226;2023-12-28T04:35:08;100853.53;;;9.21;100.00
76022;BME280;64718;52.124;6.226;2023-12-28T04:37:35;100853.97;;;9.09;100.00
76022;BME280;64718;52.124;6.226;2023-12-28T04:40:02;100866.09;;;9.08;100.00
76022;BME280;64718;52.124;6.226;2023-12-28T04:42:30;100856.47;;;9.12;100.00
76022;BME280;64718;52.124;6.226;2023-12-28T04:44:58;100861.91;;;9.04;100.00
76022;BME280;64718;52.124;6.226;2023-12-28T04:47:24;100847.03;;;9.09;100.00
76022;BME280;64718;52.124;6.226;2023-12-28T04:49:51;100832.66;;;9.01;100.00
76022;BME280;64718;52.124;6.226;2023-12-28T04:52:24;100843.97;;;8.98;100.00
76022;BME280;64718;52.124;6.226;2023-12-28T04:54:51;100847.59;;;8.94;100.00
76022;BME280;64718;52.124;6.226;2023-12-28T04:57:20;100856.06;;;8.99;100.00
76022;BME280;64718;52.124;6.226;2023-12-28T04:59:51;100859.28;;;9.06;100.00
76022;BME280;64718;52.124;6.226;2023-12-28T05:02:18;100865.66;;;9.20;100.00
76022;BME280;64718;52.124;6.226;2023-12-28T05:04:44;100856.16;;;9.19;100.00
76022;BME280;64718;52.124;6.226;2023-12-28T05:07:11;100863.31;;;9.38;100.00
76022;BME280;64718;52.124;6.226;2023-12-28T05:09:37;100861.28;;;9.46;100.00
76022;BME280;64718;52.124;6.226;2023-12-28T05:12:04;100867.84;;;9.55;100.00
76022;BME280;64718;52.124;6.226;2023-12-28T05:14:31;100879.09;;;9.55;100.00
76022;BME280;64718;52.124;6.226;2023-12-28T05:16:59;100886.53;;;9.64;100.00
76022;BME280;64718;52.124;6.226;2023-12-28T05:19:26;100901.09;;;9.68;100.00
76022;BME280;64718;52.124;6.226;2023-12-28T05:21:52;100873.84;;;9.78;100.00
76022;BME280;64718;52.124;6.226;2023-12-28T05:24:19;100881.25;;;9.89;100.00
76022;BME280;64718;52.124;6.226;2023-12-28T05:26:45;100885.50;;;9.92;100.00
76022;BME280;64718;52.124;6.226;2023-12-28T05:29:12;100884.28;;;10.00;100.00
76022;BME280;64718;52.124;6.226;2023-12-28T05:31:39;100883.38;;;10.01;100.00
76022;BME280;64718;52.124;6.226;2023-12-28T05:34:07;100889.72;;;9.94;100.00
76022;BME280;64718;52.124;6.226;2023-12-28T05:36:33;100891.22;;;10.00;100.00
76022;BME280;64718;52.124;6.226;2023-12-28T05:39:00;100886.94;;;9.99;100.00
76022;BME280;64718;52.124;6.226;2023-12-28T05:41:27;100888.50;;;10.03;100.00
76022;BME280;64718;52.124;6.226;2023-12-28T05:43:54;100887.72;;;10.01;100.00
76022;BME280;64718;52.124;6.226;2023-12-28T05:46:20;100892.88;;;10.02;100.00
76022;BME280;64718;52.124;6.226;2023-12-28T05:48:47;100891.16;;;10.01;100.00
76022;BME280;64718;52.124;6.226;2023-12-28T05:51:15;100897.47;;;9.96;100.00
76022;BME280;64718;52.124;6.226;2023-12-28T05:53:42;100893.72;;;10.03;100.00
76022;BME280;64718;52.124;6.226;2023-12-28T05:56:08;100892.13;;;9.99;100.00
76022;BME280;64718;52.124;6.226;2023-12-28T05:58:35;100900.97;;;9.95;100.00
76022;BME280;64718;52.124;6.226;2023-12-28T06:01:02;100886.75;;;10.03;100.00
76022;BME280;64718;52.124;6.226;2023-12-28T06:03:30;100894.56;;;10.03;100.00
76022;BME280;64718;52.124;6.226;2023-12-28T06:05:56;100895.41;;;10.04;100.00
76022;BME280;64718;52.124;6.226;2023-12-28T06:08:24;100877.09;;;10.07;100.00
76022;BME280;64718;52.124;6.226;2023-12-28T06:10:54;100882.03;;;10.13;100.00
76022;BME280;64718;52.124;6.226;2023-12-28T06:13:21;100894.19;;;10.12;100.00
76022;BME280;64718;52.124;6.226;2023-12-28T06:15:47;100872.44;;;10.15;100.00
76022;BME280;64718;52.124;6.226;2023-12-28T06:18:14;100895.03;;;10.13;100.00
76022;BME280;64718;52.124;6.226;2023-12-28T06:20:40;100889.84;;;10.13;100.00
76022;BME280;64718;52.124;6.226;2023-12-28T06:23:07;100884.38;;;10.21;100.00
76022;BME280;64718;52.124;6.226;2023-12-28T06:25:35;100886.91;;;10.22;100.00
76022;BME280;64718;52.124;6.226;2023-12-28T06:28:02;100885.94;;;10.25;100.00
76022;BME280;64718;52.124;6.226;2023-12-28T06:30:28;100887.00;;;10.19;100.00
76022;BME280;64718;52.124;6.226;2023-12-28T06:32:55;100901.06;;;10.13;100.00
76022;BME280;64718;52.124;6.226;2023-12-28T06:35:21;100900.34;;;10.10;100.00
76022;BME280;64718;52.124;6.226;2023-12-28T06:37:48;100906.34;;;10.12;100.00
76022;BME280;64718;52.124;6.226;2023-12-28T06:40:15;100908.28;;;10.07;100.00
76022;BME280;64718;52.124;6.226;2023-12-28T06:42:43;100898.66;;;10.09;100.00
76022;BME280;64718;52.124;6.226;2023-12-28T06:45:09;100911.72;;;10.07;100.00
76022;BME280;64718;52.124;6.226;2023-12-28T06:47:36;100917.69;;;10.09;100.00
76022;BME280;64718;52.124;6.226;2023-12-28T06:50:03;100898.41;;;10.15;100.00
76022;BME280;64718;52.124;6.226;2023-12-28T06:52:32;100916.72;;;10.12;100.00
76022;BME280;64718;52.124;6.226;2023-12-28T06:54:58;100915.81;;;10.13;100.00
76022;BME280;64718;52.124;6.226;2023-12-28T06:57:25;100914.84;;;10.15;100.00
76022;BME280;64718;52.124;6.226;2023-12-28T06:59:53;100920.91;;;10.16;100.00
76022;BME280;64718;52.124;6.226;2023-12-28T07:02:19;100903.88;;;10.09;100.00
76022;BME280;64718;52.124;6.226;2023-12-28T07:04:46;100895.03;;;10.13;100.00
76022;BME280;64718;52.124;6.226;2023-12-28T07:07:12;100904.69;;;10.09;100.00
76022;BME280;64718;52.124;6.226;2023-12-28T07:09:39;100899.44;;;10.11;100.00
76022;BME280;64718;52.124;6.226;2023-12-28T07:12:06;100906.41;;;10.10;100.00
76022;BME280;64718;52.124;6.226;2023-12-28T07:14:33;100903.78;;;10.10;100.00
76022;BME280;64718;52.124;6.226;2023-12-28T07:17:03;100890.75;;;10.12;100.00
76022;BME280;64718;52.124;6.226;2023-12-28T07:19:29;100905.44;;;10.13;100.00
76022;BME280;64718;52.124;6.226;2023-12-28T07:21:56;100906.47;;;10.09;100.00
76022;BME280;64718;52.124;6.226;2023-12-28T07:24:23;100918.59;;;10.08;100.00
76022;BME280;64718;52.124;6.226;2023-12-28T07:26:50;100927.19;;;10.10;100.00
76022;BME280;64718;52.124;6.226;2023-12-28T07:29:16;100927.84;;;10.15;100.00
76022;BME280;64718;52.124;6.226;2023-12-28T07:31:46;100912.25;;;10.15;100.00
76022;BME280;64718;52.124;6.226;2023-12-28T07:34:14;100913.09;;;10.16;100.00
76022;BME280;64718;52.124;6.226;2023-12-28T07:36:40;100917.50;;;10.14;100.00
76022;BME280;64718;52.124;6.226;2023-12-28T07:39:10;100924.41;;;10.15;100.00
76022;BME280;64718;52.124;6.226;2023-12-28T07:41:39;100924.59;;;10.10;100.00
76022;BME280;64718;52.124;6.226;2023-12-28T07:44:05;100933.34;;;10.08;100.00
76022;BME280;64718;52.124;6.226;2023-12-28T07:46:32;100931.91;;;10.01;100.00
76022;BME280;64718;52.124;6.226;2023-12-28T07:48:58;100929.00;;;10.08;100.00
76022;BME280;64718;52.124;6.226;2023-12-28T07:51:26;100958.25;;;10.13;100.00
76022;BME280;64718;52.124;6.226;2023-12-28T07:53:53;100959.75;;;10.19;100.00
76022;BME280;64718;52.124;6.226;2023-12-28T07:56:19;100966.84;;;10.15;100.00
76022;BME280;64718;52.124;6.226;2023-12-28T07:58:46;100961.03;;;10.09;100.00
76022;BME280;64718;52.124;6.226;2023-12-28T08:01:12;100956.91;;;10.03;100.00
76022;BME280;64718;52.124;6.226;2023-12-28T08:03:39;100965.56;;;10.04;100.00
76022;BME280;64718;52.124;6.226;2023-12-28T08:06:06;100967.25;;;10.05;100.00
76022;BME280;64718;52.124;6.226;2023-12-28T08:08:33;100984.38;;;10.10;100.00
76022;BME280;64718;52.124;6.226;2023-12-28T08:11:01;100972.09;;;10.14;100.00
76022;BME280;64718;52.124;6.226;2023-12-28T08:13:28;100993.63;;;10.18;100.00
76022;BME280;64718;52.124;6.226;2023-12-28T08:15:54;100985.81;;;10.18;100.00
76022;BME280;64718;52.124;6.226;2023-12-28T08:18:24;100987.25;;;10.26;100.00
76022;BME280;64718;52.124;6.226;2023-12-28T08:20:51;100988.63;;;10.35;100.00
76022;BME280;64718;52.124;6.226;2023-12-28T08:23:17;100985.31;;;10.31;100.00
76022;BME280;64718;52.124;6.226;2023-12-28T08:25:45;100977.75;;;10.25;100.00
76022;BME280;64718;52.124;6.226;2023-12-28T08:28:12;100987.97;;;10.30;100.00
76022;BME280;64718;52.124;6.226;2023-12-28T08:30:38;100981.75;;;10.34;100.00
76022;BME280;64718;52.124;6.226;2023-12-28T08:33:05;100979.09;;;10.35;100.00
76022;BME280;64718;52.124;6.226;2023-12-28T08:35:32;100967.84;;;10.35;100.00
76022;BME280;64718;52.124;6.226;2023-12-28T08:37:58;100974.59;;;10.39;100.00
76022;BME280;64718;52.124;6.226;2023-12-28T08:40:31;100984.16;;;10.38;100.00
76022;BME280;64718;52.124;6.226;2023-12-28T08:42:58;100976.38;;;10.38;100.00
76022;BME280;64718;52.124;6.226;2023-12-28T08:45:25;100973.81;;;10.37;100.00
76022;BME280;64718;52.124;6.226;2023-12-28T08:47:52;100979.03;;;10.37;100.00
76022;BME280;64718;52.124;6.226;2023-12-28T08:52:45;100967.00;;;10.34;100.00
76022;BME280;64718;52.124;6.226;2023-12-28T08:55:12;100970.44;;;10.35;100.00
76022;BME280;64718;52.124;6.226;2023-12-28T08:57:38;100989.66;;;10.31;100.00
76022;BME280;64718;52.124;6.226;2023-12-28T09:00:07;100987.78;;;10.34;100.00
76022;BME280;64718;52.124;6.226;2023-12-28T09:02:34;100984.16;;;10.38;100.00
76022;BME280;64718;52.124;6.226;2023-12-28T09:05:01;100982.38;;;10.40;100.00
76022;BME280;64718;52.124;6.226;2023-12-28T09:07:27;100984.09;;;10.40;100.00
76022;BME280;64718;52.124;6.226;2023-12-28T09:09:54;101003.91;;;10.44;100.00
76022;BME280;64718;52.124;6.226;2023-12-28T09:12:20;100983.09;;;10.44;100.00
76022;BME280;64718;52.124;6.226;2023-12-28T09:14:47;101004.63;;;10.48;100.00
76022;BME280;64718;52.124;6.226;2023-12-28T09:17:15;101001.00;;;10.52;100.00
76022;BME280;64718;52.124;6.226;2023-12-28T09:19:41;101008.94;;;10.49;100.00
76022;BME280;64718;52.124;6.226;2023-12-28T09:22:08;101009.72;;;10.51;100.00
76022;BME280;64718;52.124;6.226;2023-12-28T09:24:34;101017.75;;;10.44;100.00
76022;BME280;64718;52.124;6.226;2023-12-28T09:27:01;101015.22;;;10.43;100.00
76022;BME280;64718;52.124;6.226;2023-12-28T09:29:28;101012.69;;;10.41;100.00
76022;BME280;64718;52.124;6.226;2023-12-28T09:31:54;101022.25;;;10.39;100.00
76022;BME280;64718;52.124;6.226;2023-12-28T09:34:22;101030.03;;;10.41;100.00
76022;BME280;64718;52.124;6.226;2023-12-28T09:36:48;101028.16;;;10.44;100.00
76022;BME280;64718;52.124;6.226;2023-12-28T09:39:15;101025.50;;;10.46;100.00
76022;BME280;64718;52.124;6.226;2023-12-28T09:41:43;101023.75;;;10.47;100.00
76022;BME280;64718;52.124;6.226;2023-12-28T09:44:12;101026.41;;;10.45;100.00
76022;BME280;64718;52.124;6.226;2023-12-28T09:46:41;101025.44;;;10.48;100.00
76022;BME280;64718;52.124;6.226;2023-12-28T09:49:08;101021.88;;;10.50;100.00
76022;BME280;64718;52.124;6.226;2023-12-28T09:51:36;101035.66;;;10.52;100.00
76022;BME280;64718;52.124;6.226;2023-12-28T09:54:03;101033.00;;;10.54;100.00
76022;BME280;64718;52.124;6.226;2023-12-28T09:56:30;101023.13;;;10.62;100.00
76022;BME280;64718;52.124;6.226;2023-12-28T09:58:58;101038.63;;;10.65;100.00
76022;BME280;64718;52.124;6.226;2023-12-28T10:01:25;101031.66;;;10.65;100.00
76022;BME280;64718;52.124;6.226;2023-12-28T10:03:52;101027.31;;;10.66;100.00
76022;BME280;64718;52.124;6.226;2023-12-28T10:06:19;101032.38;;;10.69;100.00
76022;BME280;64718;52.124;6.226;2023-12-28T10:08:48;101031.34;;;10.73;100.00
76022;BME280;64718;52.124;6.226;2023-12-28T10:11:16;101038.25;;;10.74;100.00
76022;BME280;64718;52.124;6.226;2023-12-28T10:13:43;101034.81;;;10.73;100.00
76022;BME280;64718;52.124;6.226;2023-12-28T10:16:10;101043.44;;;10.74;100.00
76022;BME280;64718;52.124;6.226;2023-12-28T10:18:40;101029.22;;;10.83;100.00
76022;BME280;64718;52.124;6.226;2023-12-28T10:21:08;101040.66;;;10.78;100.00
76022;BME280;64718;52.124;6.226;2023-12-28T10:23:35;101028.38;;;10.82;100.00
76022;BME280;64718;52.124;6.226;2023-12-28T10:26:04;101040.59;;;10.80;100.00
76022;BME280;64718;52.124;6.226;2023-12-28T10:28:31;101040.00;;;10.73;100.00
76022;BME280;64718;52.124;6.226;2023-12-28T10:30:58;101041.81;;;10.71;100.00
76022;BME280;64718;52.124;6.226;2023-12-28T10:33:24;101033.88;;;10.74;100.00
76022;BME280;64718;52.124;6.226;2023-12-28T10:35:51;101030.31;;;10.77;100.00
76022;BME280;64718;52.124;6.226;2023-12-28T10:38:19;101044.19;;;10.77;100.00
76022;BME280;64718;52.124;6.226;2023-12-28T10:40:46;101047.38;;;10.84;100.00
76022;BME280;64718;52.124;6.226;2023-12-28T10:43:16;101038.84;;;10.81;100.00
76022;BME280;64718;52.124;6.226;2023-12-28T10:45:46;101040.53;;;10.82;100.00
76022;BME280;64718;52.124;6.226;2023-12-28T10:48:13;101026.44;;;10.87;100.00
76022;BME280;64718;52.124;6.226;2023-12-28T10:50:41;101029.03;;;10.87;100.00
76022;BME280;64718;52.124;6.226;2023-12-28T10:53:22;101037.69;;;10.88;100.00
76022;BME280;64718;52.124;6.226;2023-12-28T10:56:01;101045.44;;;10.89;100.00
76022;BME280;64718;52.124;6.226;2023-12-28T10:58:40;101042.50;;;10.97;100.00
76022;BME280;64718;52.124;6.226;2023-12-28T11:01:12;101052.13;;;10.95;100.00
76022;BME280;64718;52.124;6.226;2023-12-28T11:03:40;101031.31;;;10.95;100.00
76022;BME280;64718;52.124;6.226;2023-12-28T11:06:08;101033.06;;;10.94;100.00
76022;BME280;64718;52.124;6.226;2023-12-28T11:08:35;101043.34;;;10.99;100.00
76022;BME280;64718;52.124;6.226;2023-12-28T11:11:03;101026.38;;;10.89;100.00
76022;BME280;64718;52.124;6.226;2023-12-28T11:13:33;101027.28;;;10.88;100.00
76022;BME280;64718;52.124;6.226;2023-12-28T11:16:01;101029.03;;;10.87;100.00
76022;BME280;64718;52.124;6.226;2023-12-28T11:18:29;101032.22;;;10.94;100.00
76022;BME280;64718;52.124;6.226;2023-12-28T11:20:56;101028.84;;;10.92;100.00
76022;BME280;64718;52.124;6.226;2023-12-28T11:23:24;101036.00;;;10.87;100.00
76022;BME280;64718;52.124;6.226;2023-12-28T11:25:51;101015.00;;;10.91;100.00
76022;BME280;64718;52.124;6.226;2023-12-28T11:28:17;101020.78;;;10.98;100.00
76022;BME280;64718;52.124;6.226;2023-12-28T11:30:46;101021.69;;;10.97;100.00
76022;BME280;64718;52.124;6.226;2023-12-28T11:33:13;101018.44;;;10.92;100.00
76022;BME280;64718;52.124;6.226;2023-12-28T11:35:40;101016.88;;;10.88;100.00
76022;BME280;64718;52.124;6.226;2023-12-28T11:38:09;101028.31;;;10.84;100.00
76022;BME280;64718;52.124;6.226;2023-12-28T11:40:42;101028.97;;;10.89;100.00
76022;BME280;64718;52.124;6.226;2023-12-28T11:43:17;101033.34;;;10.88;100.00
76022;BME280;64718;52.124;6.226;2023-12-28T11:45:49;101016.56;;;10.95;100.00
76022;BME280;64718;52.124;6.226;2023-12-28T11:48:23;101014.00;;;10.94;100.00
76022;BME280;64718;52.124;6.226;2023-12-28T11:50:54;101014.69;;;10.99;100.00
76022;BME280;64718;52.124;6.226;2023-12-28T11:53:21;101012.97;;;10.98;100.00
76022;BME280;64718;52.124;6.226;2023-12-28T11:55:48;101023.44;;;10.96;100.00
76022;BME280;64718;52.124;6.226;2023-12-28T11:58:15;101013.84;;;10.98;100.00
76022;BME280;64718;52.124;6.226;2023-12-28T12:00:42;101013.09;;;10.95;100.00
76022;BME280;64718;52.124;6.226;2023-12-28T12:03:12;101020.78;;;10.98;100.00
76022;BME280;64718;52.124;6.226;2023-12-28T12:05:39;101019.94;;;10.97;100.00
76022;BME280;64718;52.124;6.226;2023-12-28T12:08:06;101022.84;;;10.90;100.00
76022;BME280;64718;52.124;6.226;2023-12-28T12:10:34;101026.63;;;10.83;100.00
76022;BME280;64718;52.124;6.226;2023-12-28T12:13:00;101023.03;;;10.85;100.00
76022;BME280;64718;52.124;6.226;2023-12-28T12:15:28;101007.50;;;10.84;100.00
76022;BME280;64718;52.124;6.226;2023-12-28T12:17:55;101016.16;;;10.84;100.00
76022;BME280;64718;52.124;6.226;2023-12-28T12:20:23;101011.13;;;10.80;100.00
76022;BME280;64718;52.124;6.226;2023-12-28T12:22:51;101009.97;;;10.87;100.00
76022;BME280;64718;52.124;6.226;2023-12-28T12:25:18;101010.09;;;10.84;100.00
76022;BME280;64718;52.124;6.226;2023-12-28T12:27:45;101005.94;;;10.80;100.00
76022;BME280;64718;52.124;6.226;2023-12-28T12:30:12;101003.66;;;10.72;100.00
76022;BME280;64718;52.124;6.226;2023-12-28T12:32:38;101015.09;;;10.68;100.00
76022;BME280;64718;52.124;6.226;2023-12-28T12:35:09;101006.50;;;10.66;100.00
76022;BME280;64718;52.124;6.226;2023-12-28T12:37:37;101002.19;;;10.65;100.00
76022;BME280;64718;52.124;6.226;2023-12-28T12:40:05;100994.41;;;10.65;100.00
76022;BME280;64718;52.124;6.226;2023-12-28T12:42:32;100986.72;;;10.62;100.00
76022;BME280;64718;52.124;6.226;2023-12-28T12:45:00;100985.69;;;10.66;100.00
76022;BME280;64718;52.124;6.226;2023-12-28T12:47:32;100980.16;;;10.73;100.00
76022;BME280;64718;52.124;6.226;2023-12-28T12:49:59;100983.63;;;10.74;100.00